sensor_id;sensor_type;location;lat;lon;timestamp;temperature;humidity
33881;DHT22;20172;47.530;10.256;2023-08-20T00:01:53;21.20;99.90
33881;DHT22;20172;47.530;10.256;2023-08-20T00:04:21;21.20;99.90
33881;DHT22;20172;47.530;10.256;2023-08-20T00:06:47;21.20;99.90
33881;DHT22;20172;47.530;10.256;2023-08-20T00:09:13;21.30;99.90
33881;DHT22;20172;47.530;10.256;2023-08-20T00:11:38;21.20;99.90
33881;DHT22;20172;47.530;10.256;2023-08-20T00:14:04;21.20;99.90
33881;DHT22;20172;47.530;10.256;2023-08-20T00:16:29;21.10;99.90
33881;DHT22;20172;47.530;10.256;2023-08-20T00:18:55;21.10;99.90
33881;DHT22;20172;47.530;10.256;2023-08-20T00:21:20;21.10;99.90
33881;DHT22;20172;47.530;10.256;2023-08-20T00:23:46;21.20;99.90
33881;DHT22;20172;47.530;10.256;2023-08-20T00:26:12;21.20;99.90
33881;DHT22;20172;47.530;10.256;2023-08-20T00:28:38;21.10;99.90
33881;DHT22;20172;47.530;10.256;2023-08-20T00:31:04;21.00;99.90
33881;DHT22;20172;47.530;10.256;2023-08-20T00:33:31;21.00;99.90
33881;DHT22;20172;47.530;10.256;2023-08-20T00:35:56;21.00;99.90
33881;DHT22;20172;47.530;10.256;2023-08-20T00:38:22;21.00;99.90
33881;DHT22;20172;47.530;10.256;2023-08-20T00:40:47;21.00;99.90
33881;DHT22;20172;47.530;10.256;2023-08-20T00:43:13;21.00;99.90
33881;DHT22;20172;47.530;10.256;2023-08-20T00:45:40;21.00;99.90
33881;DHT22;20172;47.530;10.256;2023-08-20T00:48:06;21.00;99.90
33881;DHT22;20172;47.530;10.256;2023-08-20T00:50:31;20.90;99.90
33881;DHT22;20172;47.530;10.256;2023-08-20T00:52:57;20.90;99.90
33881;DHT22;20172;47.530;10.256;2023-08-20T00:55:23;20.80;99.90
33881;DHT22;20172;47.530;10.256;2023-08-20T00:57:49;20.80;99.90
33881;DHT22;20172;47.530;10.256;2023-08-20T01:00:14;20.80;99.90
33881;DHT22;20172;47.530;10.256;2023-08-20T01:02:41;20.80;99.90
33881;DHT22;20172;47.530;10.256;2023-08-20T01:05:06;20.70;99.90
33881;DHT22;20172;47.530;10.256;2023-08-20T01:07:39;20.80;99.90
33881;DHT22;20172;47.530;10.256;2023-08-20T01:10:12;20.70;99.90
33881;DHT22;20172;47.530;10.256;2023-08-20T01:12:39;20.50;99.90
33881;DHT22;20172;47.530;10.256;2023-08-20T01:15:06;20.40;99.90
33881;DHT22;20172;47.530;10.256;2023-08-20T01:17:33;20.30;99.90
33881;DHT22;20172;47.530;10.256;2023-08-20T01:19:59;20.20;99.90
33881;DHT22;20172;47.530;10.256;2023-08-20T01:25:04;20.20;99.90
33881;DHT22;20172;47.530;10.256;2023-08-20T01:30:10;20.20;99.90
33881;DHT22;20172;47.530;10.256;2023-08-20T01:32:36;20.20;99.90
33881;DHT22;20172;47.530;10.256;2023-08-20T01:35:02;20.30;99.90
33881;DHT22;20172;47.530;10.256;2023-08-20T01:37:28;20.20;99.90
33881;DHT22;20172;47.530;10.256;2023-08-20T01:39:53;20.20;99.90
33881;DHT22;20172;47.530;10.256;2023-08-20T01:42:19;20.10;99.90
33881;DHT22;20172;47.530;10.256;2023-08-20T01:44:44;20.10;99.90
33881;DHT22;20172;47.530;10.256;2023-08-20T01:47:10;20.00;99.90
33881;DHT22;20172;47.530;10.256;2023-08-20T01:49:35;20.00;99.90
33881;DHT22;20172;47.530;10.256;2023-08-20T01:52:01;20.00;99.90
33881;DHT22;20172;47.530;10.256;2023-08-20T01:54:27;19.90;99.90
33881;DHT22;20172;47.530;10.256;2023-08-20T01:56:54;19.90;99.90
33881;DHT22;20172;47.530;10.256;2023-08-20T01:59:21;20.00;99.90
33881;DHT22;20172;47.530;10.256;2023-08-20T02:01:46;19.90;99.90
33881;DHT22;20172;47.530;10.256;2023-08-20T02:04:12;19.80;99.90
33881;DHT22;20172;47.530;10.256;2023-08-20T02:06:37;19.90;99.90
33881;DHT22;20172;47.530;10.256;2023-08-20T02:09:03;19.90;99.90
33881;DHT22;20172;47.530;10.256;2023-08-20T02:11:29;19.90;99.90
33881;DHT22;20172;47.530;10.256;2023-08-20T02:13:58;19.90;99.90
33881;DHT22;20172;47.530;10.256;2023-08-20T02:16:23;19.80;99.90
33881;DHT22;20172;47.530;10.256;2023-08-20T02:18:49;19.70;99.90
33881;DHT22;20172;47.530;10.256;2023-08-20T02:21:14;19.70;99.90
33881;DHT22;20172;47.530;10.256;2023-08-20T02:23:40;19.60;99.90
33881;DHT22;20172;47.530;10.256;2023-08-20T02:26:05;19.50;99.90
33881;DHT22;20172;47.530;10.256;2023-08-20T02:28:31;19.40;99.90
33881;DHT22;20172;47.530;10.256;2023-08-20T02:30:56;19.40;99.90
33881;DHT22;20172;47.530;10.256;2023-08-20T02:33:22;19.30;99.90
33881;DHT22;20172;47.530;10.256;2023-08-20T02:35:48;19.30;99.90
33881;DHT22;20172;47.530;10.256;2023-08-20T02:38:13;19.30;99.90
33881;DHT22;20172;47.530;10.256;2023-08-20T02:40:41;19.30;99.90
33881;DHT22;20172;47.530;10.256;2023-08-20T02:43:06;19.30;99.90
33881;DHT22;20172;47.530;10.256;2023-08-20T02:45:32;19.30;99.90
33881;DHT22;20172;47.530;10.256;2023-08-20T02:47:57;19.20;99.90
33881;DHT22;20172;47.530;10.256;2023-08-20T02:50:23;19.10;99.90
33881;DHT22;20172;47.530;10.256;2023-08-20T02:52:48;19.00;99.90
33881;DHT22;20172;47.530;10.256;2023-08-20T02:55:14;18.90;99.90
33881;DHT22;20172;47.530;10.256;2023-08-20T02:57:39;18.90;99.90
33881;DHT22;20172;47.530;10.256;2023-08-20T03:00:05;18.90;99.90
33881;DHT22;20172;47.530;10.256;2023-08-20T03:02:35;18.90;99.90
33881;DHT22;20172;47.530;10.256;2023-08-20T03:05:00;18.90;99.90
33881;DHT22;20172;47.530;10.256;2023-08-20T03:07:26;19.00;99.90
33881;DHT22;20172;47.530;10.256;2023-08-20T03:09:51;19.10;99.90
33881;DHT22;20172;47.530;10.256;2023-08-20T03:12:17;19.10;99.90
33881;DHT22;20172;47.530;10.256;2023-08-20T03:14:42;19.10;99.90
33881;DHT22;20172;47.530;10.256;2023-08-20T03:17:08;19.10;99.90
33881;DHT22;20172;47.530;10.256;2023-08-20T03:19:34;19.10;99.90
33881;DHT22;20172;47.530;10.256;2023-08-20T03:22:02;19.00;99.90
33881;DHT22;20172;47.530;10.256;2023-08-20T03:24:27;18.90;99.90
33881;DHT22;20172;47.530;10.256;2023-08-20T03:26:53;18.80;99.90
33881;DHT22;20172;47.530;10.256;2023-08-20T03:29:19;18.70;99.90
33881;DHT22;20172;47.530;10.256;2023-08-20T03:31:45;18.60;99.90
33881;DHT22;20172;47.530;10.256;2023-08-20T03:34:10;18.50;99.90
33881;DHT22;20172;47.530;10.256;2023-08-20T03:36:36;18.50;99.90
33881;DHT22;20172;47.530;10.256;2023-08-20T03:39:01;18.40;99.90
33881;DHT22;20172;47.530;10.256;2023-08-20T03:41:28;18.40;99.90
33881;DHT22;20172;47.530;10.256;2023-08-20T03:43:54;18.40;99.90
33881;DHT22;20172;47.530;10.256;2023-08-20T03:46:19;18.40;99.90
33881;DHT22;20172;47.530;10.256;2023-08-20T03:48:45;18.40;99.90
33881;DHT22;20172;47.530;10.256;2023-08-20T03:51:10;18.30;99.90
33881;DHT22;20172;47.530;10.256;2023-08-20T03:53:36;18.30;99.90
33881;DHT22;20172;47.530;10.256;2023-08-20T03:56:01;18.20;99.90
33881;DHT22;20172;47.530;10.256;2023-08-20T03:58:28;18.20;99.90
33881;DHT22;20172;47.530;10.256;2023-08-20T04:00:54;18.10;99.90
33881;DHT22;20172;47.530;10.256;2023-08-20T04:03:19;18.10;99.90
33881;DHT22;20172;47.530;10.256;2023-08-20T04:05:45;18.20;99.90
33881;DHT22;20172;47.530;10.256;2023-08-20T04:08:10;18.30;99.90
33881;DHT22;20172;47.530;10.256;2023-08-20T04:10:42;18.30;99.90
33881;DHT22;20172;47.530;10.256;2023-08-20T04:13:07;18.40;99.90
33881;DHT22;20172;47.530;10.256;2023-08-20T04:15:33;18.40;99.90
33881;DHT22;20172;47.530;10.256;2023-08-20T04:17:58;18.50;99.90
33881;DHT22;20172;47.530;10.256;2023-08-20T04:20:24;18.50;99.90
33881;DHT22;20172;47.530;10.256;2023-08-20T04:22:49;18.50;99.90
33881;DHT22;20172;47.530;10.256;2023-08-20T04:25:15;18.40;99.90
33881;DHT22;20172;47.530;10.256;2023-08-20T04:27:40;18.40;99.90
33881;DHT22;20172;47.530;10.256;2023-08-20T04:30:06;18.40;99.90
33881;DHT22;20172;47.530;10.256;2023-08-20T04:32:32;18.40;99.90
33881;DHT22;20172;47.530;10.256;2023-08-20T04:34:57;18.30;99.90
33881;DHT22;20172;47.530;10.256;2023-08-20T04:37:23;18.20;99.90
33881;DHT22;20172;47.530;10.256;2023-08-20T04:39:48;18.20;99.90
33881;DHT22;20172;47.530;10.256;2023-08-20T04:42:14;18.20;99.90
33881;DHT22;20172;47.530;10.256;2023-08-20T04:44:40;18.20;99.90
33881;DHT22;20172;47.530;10.256;2023-08-20T04:47:05;18.20;99.90
33881;DHT22;20172;47.530;10.256;2023-08-20T04:49:31;18.10;99.90
33881;DHT22;20172;47.530;10.256;2023-08-20T04:51:56;18.10;99.90
33881;DHT22;20172;47.530;10.256;2023-08-20T04:54:22;18.10;99.90
33881;DHT22;20172;47.530;10.256;2023-08-20T04:56:47;18.10;99.90
33881;DHT22;20172;47.530;10.256;2023-08-20T04:59:13;18.20;99.90
33881;DHT22;20172;47.530;10.256;2023-08-20T05:01:38;18.30;99.90
33881;DHT22;20172;47.530;10.256;2023-08-20T05:04:04;18.40;99.90
33881;DHT22;20172;47.530;10.256;2023-08-20T05:06:30;18.50;99.90
33881;DHT22;20172;47.530;10.256;2023-08-20T05:08:57;18.60;99.90
33881;DHT22;20172;47.530;10.256;2023-08-20T05:11:22;18.70;99.90
33881;DHT22;20172;47.530;10.256;2023-08-20T05:13:49;18.80;99.90
33881;DHT22;20172;47.530;10.256;2023-08-20T05:16:14;18.80;99.90
33881;DHT22;20172;47.530;10.256;2023-08-20T05:18:40;18.90;99.90
33881;DHT22;20172;47.530;10.256;2023-08-20T05:21:05;18.90;99.90
33881;DHT22;20172;47.530;10.256;2023-08-20T05:23:31;18.90;99.90
33881;DHT22;20172;47.530;10.256;2023-08-20T05:25:56;18.90;99.90
33881;DHT22;20172;47.530;10.256;2023-08-20T05:28:22;18.90;99.90
33881;DHT22;20172;47.530;10.256;2023-08-20T05:30:54;18.90;99.90
33881;DHT22;20172;47.530;10.256;2023-08-20T05:33:20;18.80;99.90
33881;DHT22;20172;47.530;10.256;2023-08-20T05:35:45;18.80;99.90
33881;DHT22;20172;47.530;10.256;2023-08-20T05:38:11;18.90;99.90
33881;DHT22;20172;47.530;10.256;2023-08-20T05:40:36;18.90;99.90
33881;DHT22;20172;47.530;10.256;2023-08-20T05:43:02;18.90;99.90
33881;DHT22;20172;47.530;10.256;2023-08-20T05:45:27;18.90;99.90
33881;DHT22;20172;47.530;10.256;2023-08-20T05:47:53;18.90;99.90
33881;DHT22;20172;47.530;10.256;2023-08-20T05:50:18;18.90;99.90
33881;DHT22;20172;47.530;10.256;2023-08-20T05:52:44;19.00;99.90
33881;DHT22;20172;47.530;10.256;2023-08-20T05:55:09;19.10;99.90
33881;DHT22;20172;47.530;10.256;2023-08-20T05:57:35;19.30;99.90
33881;DHT22;20172;47.530;10.256;2023-08-20T06:00:02;19.50;99.90
33881;DHT22;20172;47.530;10.256;2023-08-20T06:02:29;19.70;99.90
33881;DHT22;20172;47.530;10.256;2023-08-20T06:04:55;19.80;99.90
33881;DHT22;20172;47.530;10.256;2023-08-20T06:07:20;20.00;99.90
33881;DHT22;20172;47.530;10.256;2023-08-20T06:09:46;20.00;99.90
33881;DHT22;20172;47.530;10.256;2023-08-20T06:12:12;20.00;99.90
33881;DHT22;20172;47.530;10.256;2023-08-20T06:14:37;20.10;99.90
33881;DHT22;20172;47.530;10.256;2023-08-20T06:17:03;20.30;99.90
33881;DHT22;20172;47.530;10.256;2023-08-20T06:19:29;20.40;99.90
33881;DHT22;20172;47.530;10.256;2023-08-20T06:21:54;20.50;99.90
33881;DHT22;20172;47.530;10.256;2023-08-20T06:24:20;20.70;99.90
33881;DHT22;20172;47.530;10.256;2023-08-20T06:26:45;20.90;99.90
33881;DHT22;20172;47.530;10.256;2023-08-20T06:29:11;21.00;99.90
33881;DHT22;20172;47.530;10.256;2023-08-20T06:31:36;21.20;99.90
33881;DHT22;20172;47.530;10.256;2023-08-20T06:34:02;21.30;99.90
33881;DHT22;20172;47.530;10.256;2023-08-20T06:36:28;21.50;99.90
33881;DHT22;20172;47.530;10.256;2023-08-20T06:38:53;21.70;99.90
33881;DHT22;20172;47.530;10.256;2023-08-20T06:41:19;21.80;99.90
33881;DHT22;20172;47.530;10.256;2023-08-20T06:43:44;21.80;99.90
33881;DHT22;20172;47.530;10.256;2023-08-20T06:46:10;22.00;99.90
33881;DHT22;20172;47.530;10.256;2023-08-20T06:48:35;22.10;99.90
33881;DHT22;20172;47.530;10.256;2023-08-20T06:51:08;22.30;99.90
33881;DHT22;20172;47.530;10.256;2023-08-20T06:53:33;22.40;99.90
33881;DHT22;20172;47.530;10.256;2023-08-20T06:55:59;22.50;99.90
33881;DHT22;20172;47.530;10.256;2023-08-20T06:58:24;22.60;99.90
33881;DHT22;20172;47.530;10.256;2023-08-20T07:00:50;22.70;99.90
33881;DHT22;20172;47.530;10.256;2023-08-20T07:03:15;22.80;99.90
33881;DHT22;20172;47.530;10.256;2023-08-20T07:05:42;22.90;99.90
33881;DHT22;20172;47.530;10.256;2023-08-20T07:08:08;23.10;99.90
33881;DHT22;20172;47.530;10.256;2023-08-20T07:10:33;23.20;99.90
33881;DHT22;20172;47.530;10.256;2023-08-20T07:12:59;23.40;99.90
33881;DHT22;20172;47.530;10.256;2023-08-20T07:15:24;23.50;99.90
33881;DHT22;20172;47.530;10.256;2023-08-20T07:17:50;23.70;99.90
33881;DHT22;20172;47.530;10.256;2023-08-20T07:20:15;23.70;99.90
33881;DHT22;20172;47.530;10.256;2023-08-20T07:22:43;23.80;99.90
33881;DHT22;20172;47.530;10.256;2023-08-20T07:25:09;23.90;99.90
33881;DHT22;20172;47.530;10.256;2023-08-20T07:27:34;24.00;99.90
33881;DHT22;20172;47.530;10.256;2023-08-20T07:30:00;24.00;99.90
33881;DHT22;20172;47.530;10.256;2023-08-20T07:32:25;24.20;99.90
33881;DHT22;20172;47.530;10.256;2023-08-20T07:34:51;24.30;99.90
33881;DHT22;20172;47.530;10.256;2023-08-20T07:37:16;24.50;99.90
33881;DHT22;20172;47.530;10.256;2023-08-20T07:39:42;24.60;99.90
33881;DHT22;20172;47.530;10.256;2023-08-20T07:42:08;24.60;99.90
33881;DHT22;20172;47.530;10.256;2023-08-20T07:44:33;24.60;99.90
33881;DHT22;20172;47.530;10.256;2023-08-20T07:46:59;24.80;99.90
33881;DHT22;20172;47.530;10.256;2023-08-20T07:49:25;24.90;99.90
33881;DHT22;20172;47.530;10.256;2023-08-20T07:51:50;25.10;99.90
33881;DHT22;20172;47.530;10.256;2023-08-20T07:54:17;25.10;99.90
33881;DHT22;20172;47.530;10.256;2023-08-20T07:56:43;25.20;99.90
33881;DHT22;20172;47.530;10.256;2023-08-20T07:59:08;25.30;99.90
33881;DHT22;20172;47.530;10.256;2023-08-20T08:01:34;25.40;99.90
33881;DHT22;20172;47.530;10.256;2023-08-20T08:03:59;25.40;99.90
33881;DHT22;20172;47.530;10.256;2023-08-20T08:06:25;25.50;99.90
33881;DHT22;20172;47.530;10.256;2023-08-20T08:08:50;25.50;99.90
33881;DHT22;20172;47.530;10.256;2023-08-20T08:11:16;25.60;99.90
33881;DHT22;20172;47.530;10.256;2023-08-20T08:13:42;25.70;99.90
33881;DHT22;20172;47.530;10.256;2023-08-20T08:16:07;25.80;99.90
33881;DHT22;20172;47.530;10.256;2023-08-20T08:18:33;25.90;99.90
33881;DHT22;20172;47.530;10.256;2023-08-20T08:20:58;26.00;99.90
33881;DHT22;20172;47.530;10.256;2023-08-20T08:23:24;26.10;99.90
33881;DHT22;20172;47.530;10.256;2023-08-20T08:25:49;26.20;99.90
33881;DHT22;20172;47.530;10.256;2023-08-20T08:28:15;26.30;99.90
33881;DHT22;20172;47.530;10.256;2023-08-20T08:30:40;26.50;99.90
33881;DHT22;20172;47.530;10.256;2023-08-20T08:33:06;26.60;99.90
33881;DHT22;20172;47.530;10.256;2023-08-20T08:35:32;26.70;99.90
33881;DHT22;20172;47.530;10.256;2023-08-20T08:37:57;26.80;99.90
33881;DHT22;20172;47.530;10.256;2023-08-20T08:40:23;26.90;99.90
33881;DHT22;20172;47.530;10.256;2023-08-20T08:42:49;26.90;99.90
33881;DHT22;20172;47.530;10.256;2023-08-20T08:45:17;27.00;99.90
33881;DHT22;20172;47.530;10.256;2023-08-20T08:47:43;27.00;99.90
33881;DHT22;20172;47.530;10.256;2023-08-20T08:50:09;27.10;99.90
33881;DHT22;20172;47.530;10.256;2023-08-20T08:52:36;27.20;99.90
33881;DHT22;20172;47.530;10.256;2023-08-20T08:55:01;27.30;99.90
33881;DHT22;20172;47.530;10.256;2023-08-20T08:57:28;27.40;99.90
33881;DHT22;20172;47.530;10.256;2023-08-20T08:59:54;27.50;99.90
33881;DHT22;20172;47.530;10.256;2023-08-20T09:02:19;27.60;99.90
33881;DHT22;20172;47.530;10.256;2023-08-20T09:04:45;27.70;99.90
33881;DHT22;20172;47.530;10.256;2023-08-20T09:07:14;27.80;99.90
33881;DHT22;20172;47.530;10.256;2023-08-20T09:09:45;28.00;99.90
33881;DHT22;20172;47.530;10.256;2023-08-20T09:12:15;28.10;99.90
33881;DHT22;20172;47.530;10.256;2023-08-20T09:14:51;28.20;99.90
33881;DHT22;20172;47.530;10.256;2023-08-20T09:17:17;28.30;99.90
33881;DHT22;20172;47.530;10.256;2023-08-20T09:19:43;28.50;99.90
33881;DHT22;20172;47.530;10.256;2023-08-20T09:22:12;28.50;99.90
33881;DHT22;20172;47.530;10.256;2023-08-20T09:27:04;28.80;99.90
33881;DHT22;20172;47.530;10.256;2023-08-20T09:29:33;29.00;99.90
33881;DHT22;20172;47.530;10.256;2023-08-20T09:32:00;29.10;99.90
33881;DHT22;20172;47.530;10.256;2023-08-20T09:34:35;29.20;99.90
33881;DHT22;20172;47.530;10.256;2023-08-20T09:37:01;29.20;99.90
33881;DHT22;20172;47.530;10.256;2023-08-20T09:39:26;29.30;99.90
33881;DHT22;20172;47.530;10.256;2023-08-20T09:41:52;29.40;99.90
33881;DHT22;20172;47.530;10.256;2023-08-20T09:44:18;29.50;99.90
33881;DHT22;20172;47.530;10.256;2023-08-20T09:46:44;29.60;99.90
33881;DHT22;20172;47.530;10.256;2023-08-20T09:49:10;29.70;99.90
33881;DHT22;20172;47.530;10.256;2023-08-20T09:51:37;29.80;99.90
33881;DHT22;20172;47.530;10.256;2023-08-20T09:56:36;30.00;99.90
33881;DHT22;20172;47.530;10.256;2023-08-20T09:59:03;30.10;99.90
33881;DHT22;20172;47.530;10.256;2023-08-20T10:01:29;30.20;99.90
33881;DHT22;20172;47.530;10.256;2023-08-20T10:03:55;30.20;99.90
33881;DHT22;20172;47.530;10.256;2023-08-20T10:06:21;30.40;99.90
33881;DHT22;20172;47.530;10.256;2023-08-20T10:08:48;30.50;99.90
33881;DHT22;20172;47.530;10.256;2023-08-20T10:11:15;30.50;99.90
33881;DHT22;20172;47.530;10.256;2023-08-20T10:13:40;30.70;99.90
33881;DHT22;20172;47.530;10.256;2023-08-20T10:16:06;30.80;99.90
33881;DHT22;20172;47.530;10.256;2023-08-20T10:18:33;30.90;99.90
33881;DHT22;20172;47.530;10.256;2023-08-20T10:21:00;31.00;99.90
33881;DHT22;20172;47.530;10.256;2023-08-20T10:23:26;31.10;99.90
33881;DHT22;20172;47.530;10.256;2023-08-20T10:25:52;31.20;99.90
33881;DHT22;20172;47.530;10.256;2023-08-20T10:28:21;31.30;99.90
33881;DHT22;20172;47.530;10.256;2023-08-20T10:31:03;31.50;99.90
33881;DHT22;20172;47.530;10.256;2023-08-20T10:33:30;31.60;99.90
33881;DHT22;20172;47.530;10.256;2023-08-20T10:35:55;31.70;99.90
33881;DHT22;20172;47.530;10.256;2023-08-20T10:38:22;31.80;99.90
33881;DHT22;20172;47.530;10.256;2023-08-20T10:43:35;32.00;99.80
33881;DHT22;20172;47.530;10.256;2023-08-20T10:48:42;32.20;98.60
33881;DHT22;20172;47.530;10.256;2023-08-20T10:53:36;32.40;99.60
33881;DHT22;20172;47.530;10.256;2023-08-20T10:58:34;32.60;98.80
33881;DHT22;20172;47.530;10.256;2023-08-20T11:03:57;32.60;98.60
33881;DHT22;20172;47.530;10.256;2023-08-20T11:06:25;32.70;98.80
33881;DHT22;20172;47.530;10.256;2023-08-20T11:08:56;32.90;99.20
33881;DHT22;20172;47.530;10.256;2023-08-20T11:11:21;32.90;99.40
33881;DHT22;20172;47.530;10.256;2023-08-20T11:13:47;33.00;97.20
33881;DHT22;20172;47.530;10.256;2023-08-20T11:16:13;33.10;98.40
33881;DHT22;20172;47.530;10.256;2023-08-20T11:18:39;33.10;97.80
33881;DHT22;20172;47.530;10.256;2023-08-20T11:21:04;33.30;97.20
33881;DHT22;20172;47.530;10.256;2023-08-20T11:23:30;33.40;98.80
33881;DHT22;20172;47.530;10.256;2023-08-20T11:25:56;33.50;97.10
33881;DHT22;20172;47.530;10.256;2023-08-20T11:28:22;33.60;97.20
33881;DHT22;20172;47.530;10.256;2023-08-20T11:30:47;33.70;96.90
33881;DHT22;20172;47.530;10.256;2023-08-20T11:33:13;33.70;96.10
33881;DHT22;20172;47.530;10.256;2023-08-20T11:35:38;33.80;95.80
33881;DHT22;20172;47.530;10.256;2023-08-20T11:38:04;33.80;96.10
33881;DHT22;20172;47.530;10.256;2023-08-20T11:40:30;33.90;96.00
33881;DHT22;20172;47.530;10.256;2023-08-20T11:42:55;34.10;96.40
33881;DHT22;20172;47.530;10.256;2023-08-20T11:45:21;34.30;96.40
33881;DHT22;20172;47.530;10.256;2023-08-20T11:47:47;34.30;95.60
33881;DHT22;20172;47.530;10.256;2023-08-20T11:50:12;34.30;94.90
33881;DHT22;20172;47.530;10.256;2023-08-20T11:52:38;34.40;95.10
33881;DHT22;20172;47.530;10.256;2023-08-20T11:55:05;34.40;94.70
33881;DHT22;20172;47.530;10.256;2023-08-20T11:57:31;34.60;94.80
33881;DHT22;20172;47.530;10.256;2023-08-20T12:00:03;34.70;94.00
33881;DHT22;20172;47.530;10.256;2023-08-20T12:02:29;34.70;93.30
33881;DHT22;20172;47.530;10.256;2023-08-20T12:04:56;34.90;93.20
33881;DHT22;20172;47.530;10.256;2023-08-20T12:07:25;34.80;92.10
33881;DHT22;20172;47.530;10.256;2023-08-20T12:09:52;34.70;93.00
33881;DHT22;20172;47.530;10.256;2023-08-20T12:12:19;34.80;93.70
33881;DHT22;20172;47.530;10.256;2023-08-20T12:14:44;34.80;93.30
33881;DHT22;20172;47.530;10.256;2023-08-20T12:17:10;34.80;91.60
33881;DHT22;20172;47.530;10.256;2023-08-20T12:19:35;35.00;91.80
33881;DHT22;20172;47.530;10.256;2023-08-20T12:22:01;35.20;91.90
33881;DHT22;20172;47.530;10.256;2023-08-20T12:24:27;35.40;92.00
33881;DHT22;20172;47.530;10.256;2023-08-20T12:26:53;35.60;92.00
33881;DHT22;20172;47.530;10.256;2023-08-20T12:29:18;35.60;91.20
33881;DHT22;20172;47.530;10.256;2023-08-20T12:31:44;35.50;90.60
33881;DHT22;20172;47.530;10.256;2023-08-20T12:34:09;35.50;92.00
33881;DHT22;20172;47.530;10.256;2023-08-20T12:36:35;35.70;91.10
33881;DHT22;20172;47.530;10.256;2023-08-20T12:39:01;35.80;90.90
33881;DHT22;20172;47.530;10.256;2023-08-20T12:41:30;35.80;90.60
33881;DHT22;20172;47.530;10.256;2023-08-20T12:43:57;36.00;91.10
33881;DHT22;20172;47.530;10.256;2023-08-20T12:46:22;36.00;89.70
33881;DHT22;20172;47.530;10.256;2023-08-20T12:48:48;36.00;88.50
33881;DHT22;20172;47.530;10.256;2023-08-20T12:51:13;36.20;89.50
33881;DHT22;20172;47.530;10.256;2023-08-20T12:53:41;36.10;88.60
33881;DHT22;20172;47.530;10.256;2023-08-20T12:56:06;36.20;90.60
33881;DHT22;20172;47.530;10.256;2023-08-20T12:58:32;36.30;91.20
33881;DHT22;20172;47.530;10.256;2023-08-20T13:00:58;36.40;90.90
33881;DHT22;20172;47.530;10.256;2023-08-20T13:03:23;36.60;90.40
33881;DHT22;20172;47.530;10.256;2023-08-20T13:05:49;36.50;88.00
33881;DHT22;20172;47.530;10.256;2023-08-20T13:08:15;36.60;88.70
33881;DHT22;20172;47.530;10.256;2023-08-20T13:10:41;36.70;87.00
33881;DHT22;20172;47.530;10.256;2023-08-20T13:13:08;36.80;85.90
33881;DHT22;20172;47.530;10.256;2023-08-20T13:15:34;36.90;86.20
33881;DHT22;20172;47.530;10.256;2023-08-20T13:18:00;37.00;85.00
33881;DHT22;20172;47.530;10.256;2023-08-20T13:20:25;37.00;85.00
33881;DHT22;20172;47.530;10.256;2023-08-20T13:22:52;36.90;82.70
33881;DHT22;20172;47.530;10.256;2023-08-20T13:25:18;36.90;82.80
33881;DHT22;20172;47.530;10.256;2023-08-20T13:27:43;37.10;82.20
33881;DHT22;20172;47.530;10.256;2023-08-20T13:30:10;37.20;81.70
33881;DHT22;20172;47.530;10.256;2023-08-20T13:32:36;37.30;81.30
33881;DHT22;20172;47.530;10.256;2023-08-20T13:35:01;37.50;80.70
33881;DHT22;20172;47.530;10.256;2023-08-20T13:37:29;37.60;81.00
33881;DHT22;20172;47.530;10.256;2023-08-20T13:39:56;37.80;77.20
33881;DHT22;20172;47.530;10.256;2023-08-20T13:42:22;38.10;77.60
33881;DHT22;20172;47.530;10.256;2023-08-20T13:44:47;38.40;76.00
33881;DHT22;20172;47.530;10.256;2023-08-20T13:47:13;39.30;74.90
33881;DHT22;20172;47.530;10.256;2023-08-20T13:49:38;40.20;74.50
33881;DHT22;20172;47.530;10.256;2023-08-20T13:52:04;41.20;71.30
33881;DHT22;20172;47.530;10.256;2023-08-20T13:54:29;41.90;69.30
33881;DHT22;20172;47.530;10.256;2023-08-20T13:56:56;42.20;65.30
33881;DHT22;20172;47.530;10.256;2023-08-20T13:59:23;42.70;63.00
33881;DHT22;20172;47.530;10.256;2023-08-20T14:01:48;43.40;63.90
33881;DHT22;20172;47.530;10.256;2023-08-20T14:04:14;44.10;61.50
33881;DHT22;20172;47.530;10.256;2023-08-20T14:06:39;44.80;57.70
33881;DHT22;20172;47.530;10.256;2023-08-20T14:09:05;45.50;56.70
33881;DHT22;20172;47.530;10.256;2023-08-20T14:11:31;46.00;55.70
33881;DHT22;20172;47.530;10.256;2023-08-20T14:13:59;46.70;54.80
33881;DHT22;20172;47.530;10.256;2023-08-20T14:16:25;47.30;54.10
33881;DHT22;20172;47.530;10.256;2023-08-20T14:18:53;47.90;52.80
33881;DHT22;20172;47.530;10.256;2023-08-20T14:21:19;48.50;51.90
33881;DHT22;20172;47.530;10.256;2023-08-20T14:23:47;49.20;50.30
33881;DHT22;20172;47.530;10.256;2023-08-20T14:26:12;49.60;49.60
33881;DHT22;20172;47.530;10.256;2023-08-20T14:28:38;49.80;49.00
33881;DHT22;20172;47.530;10.256;2023-08-20T14:31:04;50.10;49.10
33881;DHT22;20172;47.530;10.256;2023-08-20T14:33:30;50.50;47.90
33881;DHT22;20172;47.530;10.256;2023-08-20T14:35:56;50.80;47.90
33881;DHT22;20172;47.530;10.256;2023-08-20T14:38:22;51.00;47.60
33881;DHT22;20172;47.530;10.256;2023-08-20T14:40:47;51.20;46.60
33881;DHT22;20172;47.530;10.256;2023-08-20T14:43:13;51.30;45.90
33881;DHT22;20172;47.530;10.256;2023-08-20T14:45:38;51.50;45.70
33881;DHT22;20172;47.530;10.256;2023-08-20T14:48:04;51.70;45.20
33881;DHT22;20172;47.530;10.256;2023-08-20T14:50:30;51.70;44.90
33881;DHT22;20172;47.530;10.256;2023-08-20T14:52:55;51.70;44.70
33881;DHT22;20172;47.530;10.256;2023-08-20T14:55:21;51.70;44.30
33881;DHT22;20172;47.530;10.256;2023-08-20T14:57:46;51.70;43.80
33881;DHT22;20172;47.530;10.256;2023-08-20T15:00:12;51.30;44.00
33881;DHT22;20172;47.530;10.256;2023-08-20T15:02:45;51.20;44.30
33881;DHT22;20172;47.530;10.256;2023-08-20T15:05:11;51.00;45.00
33881;DHT22;20172;47.530;10.256;2023-08-20T15:07:37;50.00;45.00
33881;DHT22;20172;47.530;10.256;2023-08-20T15:10:03;48.50;45.60
33881;DHT22;20172;47.530;10.256;2023-08-20T15:12:32;47.00;47.10
33881;DHT22;20172;47.530;10.256;2023-08-20T15:14:57;45.40;48.40
33881;DHT22;20172;47.530;10.256;2023-08-20T15:17:23;44.00;50.10
33881;DHT22;20172;47.530;10.256;2023-08-20T15:19:48;42.70;51.70
33881;DHT22;20172;47.530;10.256;2023-08-20T15:22:14;41.60;52.90
33881;DHT22;20172;47.530;10.256;2023-08-20T15:24:40;40.80;53.20
33881;DHT22;20172;47.530;10.256;2023-08-20T15:27:05;40.10;53.90
33881;DHT22;20172;47.530;10.256;2023-08-20T15:29:31;39.60;55.50
33881;DHT22;20172;47.530;10.256;2023-08-20T15:31:56;39.40;56.10